Time;durP1;ratioP1;P1;durP2;ratioP2;P2;SDS_P1;SDS_P2;PMS_P1;PMS_P2;Temp;Humidity;BMP_temperature;BMP_pressure;BME280_temperature;BME280_humidity;BME280_pressure;Samples;Min_cycle;Max_cycle;Signal;HPM_P1;HPM_P2
2022/10/08 00:01:02;;;;;;;6.20;1.93;;;13.60;1.00;;;;;;5016577;28;20252;-53
2022/10/08 00:03:35;;;;;;;6.10;2.37;;;13.60;1.00;;;;;;5018233;28;20791;-53
2022/10/08 00:06:09;;;;;;;8.10;2.00;;;13.60;1.00;;;;;;5014542;28;20656;-53
2022/10/08 00:08:38;;;;;;;11.93;1.80;;;13.60;1.00;;;;;;5017371;28;20189;-53
2022/10/08 00:11:18;;;;;;;4.17;1.70;;;13.70;1.00;;;;;;5013791;28;20222;-53
2022/10/08 00:13:47;;;;;;;7.47;2.10;;;13.70;1.00;;;;;;5012051;28;20197;-54
2022/10/08 00:16:20;;;;;;;5.40;2.03;;;13.60;1.00;;;;;;5026985;28;20193;-52
2022/10/08 00:18:49;;;;;;;10.13;2.07;;;13.70;1.00;;;;;;5014832;28;20194;-53
2022/10/08 00:21:19;;;;;;;5.47;2.17;;;13.70;1.00;;;;;;5019756;28;20678;-52
2022/10/08 00:23:48;;;;;;;10.13;1.90;;;13.70;1.00;;;;;;5014091;28;20282;-53
2022/10/08 00:26:17;;;;;;;8.23;2.20;;;13.70;1.00;;;;;;5013596;28;20203;-52
2022/10/08 00:28:45;;;;;;;6.70;1.90;;;13.70;1.00;;;;;;5015199;28;20197;-53
2022/10/08 00:31:24;;;;;;;9.87;2.90;;;13.70;1.00;;;;;;5019551;28;20651;-54
2022/10/08 00:33:54;;;;;;;5.43;1.90;;;13.70;1.00;;;;;;5014237;28;20598;-53
2022/10/08 00:36:23;;;;;;;7.20;2.00;;;13.60;1.00;;;;;;5018095;28;20298;-53
2022/10/08 00:38:57;;;;;;;6.57;1.93;;;13.60;1.00;;;;;;5018477;28;20302;-53
2022/10/08 00:41:27;;;;;;;5.80;1.97;;;13.70;99.90;;;;;;5014189;28;20221;-53
2022/10/08 00:43:56;;;;;;;9.33;2.37;;;13.60;99.90;;;;;;5013170;28;20308;-53
2022/10/08 00:46:34;;;;;;;7.80;2.00;;;13.50;1.00;;;;;;5017494;28;20308;-53
2022/10/08 00:49:01;;;;;;;9.63;2.43;;;13.50;99.90;;;;;;5016465;28;20231;-53
2022/10/08 00:51:30;;;;;;;11.47;2.53;;;13.30;1.00;;;;;;5017219;28;20200;-53
2022/10/08 00:54:00;;;;;;;8.03;2.30;;;13.10;99.90;;;;;;5013839;28;20553;-53
2022/10/08 00:56:30;;;;;;;6.73;2.27;;;13.20;99.90;;;;;;5012922;28;20225;-53
2022/10/08 00:58:57;;;;;;;6.83;2.10;;;13.10;1.00;;;;;;5014282;28;20323;-53
2022/10/08 01:01:24;;;;;;;7.20;2.07;;;13.00;1.00;;;;;;5017868;28;20222;-53
2022/10/08 01:03:50;;;;;;;6.97;2.03;;;13.10;99.90;;;;;;5012047;28;20208;-54
2022/10/08 01:06:20;;;;;;;9.30;2.17;;;13.10;1.00;;;;;;5013346;28;20205;-54
2022/10/08 01:09:10;;;;;;;8.33;2.23;;;13.00;1.00;;;;;;5018875;28;20691;-54
2022/10/08 01:12:12;;;;;;;8.63;2.27;;;12.90;1.00;;;;;;5014490;28;20202;-54
2022/10/08 01:15:05;;;;;;;12.37;2.10;;;12.90;1.00;;;;;;5011753;28;20200;-54
2022/10/08 01:18:00;;;;;;;4.97;2.00;;;13.00;1.00;;;;;;5015479;28;20552;-53
2022/10/08 01:20:38;;;;;;;6.73;2.10;;;13.00;1.00;;;;;;5015723;28;20193;-53
2022/10/08 01:23:27;;;;;;;7.00;2.40;;;13.00;1.00;;;;;;5016059;28;20221;-53
2022/10/08 01:26:07;;;;;;;5.53;1.87;;;13.10;1.00;;;;;;5014579;28;20658;-53
2022/10/08 01:28:49;;;;;;;5.83;1.77;;;13.00;1.00;;;;;;5013649;28;20611;-53
2022/10/08 01:31:29;;;;;;;7.60;2.20;;;13.00;1.00;;;;;;5015865;28;20197;-53
2022/10/08 01:34:06;;;;;;;7.37;2.63;;;12.90;1.00;;;;;;5010020;28;20209;-53
2022/10/08 01:36:47;;;;;;;5.33;2.47;;;12.90;99.90;;;;;;5017257;28;20211;-52
2022/10/08 01:39:17;;;;;;;4.87;2.27;;;13.00;99.90;;;;;;5018562;28;20207;-54
2022/10/08 01:41:55;;;;;;;8.03;3.00;;;12.90;99.90;;;;;;5023498;28;20291;-55
2022/10/08 01:44:28;;;;;;;8.30;3.73;;;12.80;99.90;;;;;;5023491;28;20202;-54
2022/10/08 01:46:58;;;;;;;6.33;3.03;;;12.80;99.90;;;;;;5020502;28;20211;-54
2022/10/08 01:49:29;;;;;;;5.90;2.97;;;12.80;99.90;;;;;;5023962;28;20620;-54
2022/10/08 01:52:03;;;;;;;8.93;3.13;;;12.70;99.90;;;;;;5025194;28;20283;-54
2022/10/08 01:54:32;;;;;;;9.00;3.13;;;12.80;99.90;;;;;;5024989;28;20194;-53
2022/10/08 01:57:02;;;;;;;9.57;2.80;;;12.70;99.90;;;;;;5024264;28;20196;-53
2022/10/08 01:59:36;;;;;;;10.27;3.33;;;12.70;99.90;;;;;;5024181;28;20771;-53
2022/10/08 02:02:23;;;;;;;8.13;2.87;;;12.70;99.90;;;;;;5019783;28;20234;-54
2022/10/08 02:04:52;;;;;;;9.73;3.73;;;12.60;99.90;;;;;;5015460;28;20624;-53
2022/10/08 02:07:27;;;;;;;8.57;3.30;;;12.60;99.90;;;;;;5016742;28;20198;-53
2022/10/08 02:10:22;;;;;;;11.27;4.40;;;12.60;99.90;;;;;;5018598;28;20712;-54
2022/10/08 02:12:49;;;;;;;10.27;3.27;;;12.60;99.90;;;;;;5020027;28;20205;-53
2022/10/08 02:15:42;;;;;;;8.90;3.20;;;12.60;99.90;;;;;;5020368;28;20204;-53
2022/10/08 02:18:17;;;;;;;7.57;3.30;;;12.60;99.90;;;;;;5022674;28;20197;-52
2022/10/08 02:21:05;;;;;;;5.70;3.07;;;12.60;99.90;;;;;;5021774;28;20212;-54
2022/10/08 02:23:48;;;;;;;8.23;3.50;;;12.60;99.90;;;;;;5022556;28;20218;-53
2022/10/08 02:26:25;;;;;;;7.07;3.20;;;12.60;99.90;;;;;;5022452;28;20207;-53
2022/10/08 02:29:02;;;;;;;5.40;3.60;;;12.60;99.90;;;;;;5022286;28;20207;-53
2022/10/08 02:31:55;;;;;;;9.90;3.20;;;12.60;99.90;;;;;;5019803;28;20603;-54
2022/10/08 02:34:40;;;;;;;11.03;3.50;;;12.60;99.90;;;;;;5022584;28;20198;-54
2022/10/08 02:37:15;;;;;;;11.40;3.77;;;12.50;99.90;;;;;;5026065;28;20287;-53
2022/10/08 02:39:49;;;;;;;5.93;3.33;;;12.50;99.90;;;;;;5025067;28;20228;-52
2022/10/08 02:42:21;;;;;;;8.13;3.77;;;12.60;99.90;;;;;;5025170;28;20213;-52
2022/10/08 02:45:27;;;;;;;6.83;3.40;;;12.50;99.90;;;;;;5021864;28;20202;-54
2022/10/08 02:48:00;;;;;;;8.37;3.40;;;12.60;99.90;;;;;;5022800;28;20595;-54
2022/10/08 02:50:29;;;;;;;4.77;3.10;;;12.40;99.90;;;;;;5024814;28;20209;-54
2022/10/08 02:52:56;;;;;;;8.27;3.20;;;12.40;99.90;;;;;;5022181;28;20204;-55
2022/10/08 02:55:23;;;;;;;6.57;2.93;;;12.50;99.90;;;;;;5023621;28;20657;-54
2022/10/08 02:57:58;;;;;;;5.87;3.00;;;12.50;99.90;;;;;;5028209;28;20250;-54
2022/10/08 03:00:31;;;;;;;6.07;2.70;;;12.50;99.90;;;;;;5027960;28;20215;-54
2022/10/08 03:03:07;;;;;;;4.87;2.40;;;12.50;99.90;;;;;;5023909;28;20229;-54
2022/10/08 03:05:35;;;;;;;6.97;2.33;;;12.50;99.90;;;;;;5020266;28;20220;-54
2022/10/08 03:08:04;;;;;;;4.47;2.50;;;12.30;99.90;;;;;;5025517;28;20567;-54
2022/10/08 03:10:34;;;;;;;4.40;2.50;;;12.40;99.90;;;;;;5027031;28;20640;-54
2022/10/08 03:13:02;;;;;;;8.20;2.43;;;12.40;99.90;;;;;;5025532;28;20220;-54
2022/10/08 03:15:32;;;;;;;5.17;2.10;;;12.40;99.90;;;;;;5027634;28;20654;-54
2022/10/08 03:18:01;;;;;;;4.73;1.90;;;12.40;99.90;;;;;;5020716;28;20197;-55
2022/10/08 03:20:29;;;;;;;6.93;2.50;;;12.30;99.90;;;;;;5024710;28;20252;-54
2022/10/08 03:23:00;;;;;;;4.40;1.97;;;12.40;99.90;;;;;;5028141;28;20208;-54
2022/10/08 03:25:27;;;;;;;6.10;2.27;;;12.40;99.90;;;;;;5027581;28;20220;-54
2022/10/08 03:27:54;;;;;;;5.00;1.80;;;12.40;99.90;;;;;;5026621;28;20593;-53
2022/10/08 03:30:21;;;;;;;5.47;1.80;;;12.30;99.90;;;;;;5022346;28;20193;-52
2022/10/08 03:32:47;;;;;;;3.27;2.10;;;12.30;99.90;;;;;;5024352;28;20196;-53
2022/10/08 03:35:15;;;;;;;4.93;1.77;;;12.30;99.90;;;;;;5027249;28;20209;-53
2022/10/08 03:37:42;;;;;;;2.60;1.70;;;12.20;99.90;;;;;;5024989;28;20303;-53
2022/10/08 03:40:09;;;;;;;3.20;1.60;;;12.20;99.90;;;;;;5033005;28;20207;-56
2022/10/08 03:42:36;;;;;;;3.77;1.50;;;12.20;99.90;;;;;;5028625;28;20745;-55
2022/10/08 03:45:04;;;;;;;6.27;1.80;;;12.00;99.90;;;;;;5021920;28;20196;-54
2022/10/08 03:47:31;;;;;;;5.87;1.73;;;12.10;99.90;;;;;;5024475;28;20205;-53
2022/10/08 03:49:58;;;;;;;8.03;2.30;;;12.00;99.90;;;;;;5021889;28;20527;-53
2022/10/08 03:52:25;;;;;;;4.77;1.90;;;12.00;99.90;;;;;;5024027;28;20269;-54
2022/10/08 03:54:51;;;;;;;3.20;1.60;;;12.00;99.90;;;;;;5027288;28;20263;-54
2022/10/08 03:57:18;;;;;;;2.70;1.60;;;12.00;99.90;;;;;;5028236;28;20207;-54
2022/10/08 03:59:45;;;;;;;2.13;1.43;;;12.10;99.90;;;;;;5023407;28;20232;-53
2022/10/08 04:02:12;;;;;;;4.50;1.67;;;12.00;99.90;;;;;;5023671;28;20306;-53
2022/10/08 04:04:39;;;;;;;4.53;1.80;;;11.90;99.90;;;;;;5026637;28;20560;-54
2022/10/08 04:07:06;;;;;;;2.93;1.83;;;11.90;99.90;;;;;;5019679;28;20707;-53
2022/10/08 04:09:33;;;;;;;6.10;2.00;;;12.00;99.90;;;;;;5021276;28;20225;-53
2022/10/08 04:11:59;;;;;;;4.37;1.83;;;12.00;99.90;;;;;;5022310;28;20204;-54
2022/10/08 04:14:26;;;;;;;3.63;1.97;;;11.90;99.90;;;;;;5023857;28;20948;-53
2022/10/08 04:16:54;;;;;;;3.93;1.90;;;11.90;99.90;;;;;;5021544;28;20862;-53
2022/10/08 04:19:20;;;;;;;7.83;1.93;;;12.00;99.90;;;;;;5021847;28;20669;-52
2022/10/08 04:21:47;;;;;;;2.80;2.20;;;11.90;99.90;;;;;;5021940;28;20197;-54
2022/10/08 04:24:14;;;;;;;5.33;2.20;;;11.90;99.90;;;;;;5025585;28;20220;-53
2022/10/08 04:26:41;;;;;;;4.03;2.47;;;11.90;99.90;;;;;;5007905;28;20739;-52
2022/10/08 04:29:08;;;;;;;6.07;2.80;;;11.90;99.90;;;;;;5017216;28;20189;-54
2022/10/08 04:31:34;;;;;;;6.93;3.53;;;11.90;99.90;;;;;;5018581;28;20193;-53
2022/10/08 04:34:01;;;;;;;5.87;3.47;;;11.90;99.90;;;;;;5026556;28;20203;-53
2022/10/08 04:36:28;;;;;;;9.57;4.30;;;12.00;99.90;;;;;;5019807;28;20197;-52
2022/10/08 04:38:55;;;;;;;6.93;5.03;;;11.90;99.90;;;;;;5026511;28;20200;-54
2022/10/08 04:41:24;;;;;;;11.63;5.03;;;12.00;99.90;;;;;;5021949;28;20229;-54
2022/10/08 04:43:52;;;;;;;9.43;6.40;;;12.00;99.90;;;;;;5023572;28;20771;-53
2022/10/08 04:46:20;;;;;;;11.40;7.00;;;12.10;99.90;;;;;;5028883;28;20211;-53
2022/10/08 04:48:53;;;;;;;13.90;6.90;;;12.10;99.90;;;;;;5019310;28;20601;-54
2022/10/08 04:51:22;;;;;;;10.03;6.63;;;12.10;99.90;;;;;;5023490;28;20196;-52
2022/10/08 04:53:49;;;;;;;9.37;7.60;;;12.10;99.90;;;;;;5022902;28;20253;-54
2022/10/08 04:56:19;;;;;;;13.50;7.87;;;12.20;99.90;;;;;;5024135;28;20204;-58
2022/10/08 04:58:47;;;;;;;12.93;8.00;;;12.10;99.90;;;;;;5017345;28;20236;-52
2022/10/08 05:01:17;;;;;;;14.63;8.13;;;12.20;99.90;;;;;;5023815;28;20259;-54
2022/10/08 05:03:46;;;;;;;14.30;7.83;;;12.20;99.90;;;;;;5025801;28;20270;-53
2022/10/08 05:06:15;;;;;;;14.83;8.87;;;12.10;99.90;;;;;;5022988;28;20196;-53
2022/10/08 05:08:43;;;;;;;18.03;8.60;;;12.20;99.90;;;;;;5025519;28;20660;-52
2022/10/08 05:11:10;;;;;;;12.70;8.53;;;12.10;99.90;;;;;;5024777;28;20204;-52
2022/10/08 05:13:38;;;;;;;15.07;9.20;;;12.20;99.90;;;;;;5024833;28;20206;-53
2022/10/08 05:16:07;;;;;;;17.57;9.70;;;12.20;99.90;;;;;;5022658;28;20203;-53
2022/10/08 05:18:35;;;;;;;17.90;9.57;;;12.20;99.90;;;;;;5027075;28;20202;-53
2022/10/08 05:21:07;;;;;;;17.03;10.70;;;12.20;99.90;;;;;;5021737;28;20720;-53
2022/10/08 05:23:35;;;;;;;18.97;11.03;;;12.10;99.90;;;;;;5019662;28;20226;-53
2022/10/08 05:26:15;;;;;;;22.60;11.47;;;12.10;99.90;;;;;;5022563;28;20205;-53
2022/10/08 05:28:45;;;;;;;18.63;11.57;;;12.10;99.90;;;;;;5020748;28;20207;-53
2022/10/08 05:31:16;;;;;;;18.00;9.67;;;12.10;99.90;;;;;;5020040;28;20204;-52
2022/10/08 05:33:44;;;;;;;17.63;10.40;;;12.00;99.90;;;;;;5016719;28;20262;-53
2022/10/08 05:36:22;;;;;;;19.67;11.50;;;12.00;99.90;;;;;;5020755;28;20237;-53
2022/10/08 05:38:49;;;;;;;18.47;11.07;;;11.90;99.90;;;;;;5022211;28;20218;-53
2022/10/08 05:41:20;;;;;;;21.43;12.17;;;11.90;99.90;;;;;;5020489;28;20217;-53
2022/10/08 05:43:48;;;;;;;19.17;11.73;;;12.00;99.90;;;;;;5024279;28;20215;-53
2022/10/08 05:46:15;;;;;;;21.20;12.10;;;11.90;99.90;;;;;;5017355;28;21000;-52
2022/10/08 05:48:43;;;;;;;19.30;12.87;;;11.90;99.90;;;;;;5020679;28;20196;-53
2022/10/08 05:51:15;;;;;;;21.53;12.63;;;11.90;99.90;;;;;;5023539;28;20254;-54
2022/10/08 05:53:47;;;;;;;20.90;12.70;;;11.90;99.90;;;;;;5017955;28;20205;-53
2022/10/08 05:56:17;;;;;;;18.70;11.77;;;12.00;99.90;;;;;;5024471;28;20652;-53
2022/10/08 05:58:44;;;;;;;23.50;12.93;;;12.10;99.90;;;;;;5025596;28;20233;-53
2022/10/08 06:01:19;;;;;;;22.40;12.77;;;12.10;99.90;;;;;;5016136;28;20228;-51
2022/10/08 06:03:53;;;;;;;17.07;11.70;;;12.00;99.90;;;;;;5023786;28;20216;-51
2022/10/08 06:06:21;;;;;;;22.50;12.53;;;11.90;99.90;;;;;;5019631;28;20199;-51
2022/10/08 06:08:57;;;;;;;16.50;11.20;;;11.90;99.90;;;;;;5021425;28;20205;-51
2022/10/08 06:11:29;;;;;;;17.30;11.37;;;11.90;99.90;;;;;;5011222;28;20200;-52
2022/10/08 06:13:57;;;;;;;18.80;10.97;;;11.90;99.90;;;;;;5017080;28;20209;-52
2022/10/08 06:16:25;;;;;;;17.67;11.03;;;12.00;99.90;;;;;;5017454;28;20205;-52
2022/10/08 06:18:52;;;;;;;18.67;11.10;;;11.90;99.90;;;;;;5015957;28;20263;-52
2022/10/08 06:21:22;;;;;;;20.60;10.77;;;12.00;99.90;;;;;;5030073;28;20211;-53
2022/10/08 06:23:54;;;;;;;17.07;10.60;;;12.00;99.90;;;;;;5019671;28;20552;-53
2022/10/08 06:26:22;;;;;;;19.47;9.97;;;12.10;99.90;;;;;;5020250;28;20201;-54
2022/10/08 06:28:49;;;;;;;19.57;10.80;;;12.00;99.90;;;;;;5019927;28;20212;-52
2022/10/08 06:31:16;;;;;;;16.97;10.70;;;11.90;99.90;;;;;;5015432;28;20201;-51
2022/10/08 06:33:44;;;;;;;18.63;9.60;;;11.90;99.90;;;;;;5014816;28;20220;-51
2022/10/08 06:36:22;;;;;;;18.70;9.57;;;11.90;99.90;;;;;;5029933;28;20208;-54
2022/10/08 06:38:50;;;;;;;13.73;8.87;;;11.90;99.90;;;;;;5015040;28;20217;-53
2022/10/08 06:41:18;;;;;;;17.50;9.60;;;11.90;99.90;;;;;;5024352;28;20208;-52
2022/10/08 06:43:45;;;;;;;15.60;9.33;;;12.10;99.90;;;;;;5023051;28;20578;-54
2022/10/08 06:46:12;;;;;;;17.27;8.83;;;12.00;99.90;;;;;;5025984;28;20213;-53
2022/10/08 06:48:39;;;;;;;14.80;7.93;;;12.10;99.90;;;;;;5024453;28;20262;-52
2022/10/08 06:51:11;;;;;;;14.93;6.70;;;12.10;99.90;;;;;;5026562;28;20238;-53
2022/10/08 06:53:39;;;;;;;11.97;7.20;;;12.00;99.90;;;;;;5024680;28;20562;-53
2022/10/08 06:56:09;;;;;;;14.00;7.50;;;12.00;99.90;;;;;;5018546;28;20197;-53
2022/10/08 06:58:37;;;;;;;11.13;6.80;;;12.10;99.90;;;;;;5018423;28;20265;-53
2022/10/08 07:01:15;;;;;;;11.47;6.07;;;12.10;99.90;;;;;;5025182;28;20220;-52
2022/10/08 07:03:42;;;;;;;17.87;6.97;;;12.20;99.90;;;;;;5017859;28;20854;-53
2022/10/08 07:06:11;;;;;;;10.90;6.30;;;12.10;99.90;;;;;;5018225;28;20197;-52
2022/10/08 07:08:38;;;;;;;12.27;5.93;;;12.40;99.90;;;;;;5014939;28;20201;-53
2022/10/08 07:11:09;;;;;;;13.83;5.70;;;12.40;99.90;;;;;;5017119;28;20585;-52
2022/10/08 07:13:37;;;;;;;10.60;5.30;;;12.40;99.90;;;;;;5013457;28;20224;-53
2022/10/08 07:16:07;;;;;;;10.17;5.00;;;12.50;99.90;;;;;;5016185;28;20676;-52
2022/10/08 07:18:35;;;;;;;11.47;4.97;;;12.60;99.90;;;;;;4659090;28;10000285;-51
2022/10/08 07:21:02;;;;;;;8.97;4.70;;;12.60;99.90;;;;;;5014023;28;20197;-52
2022/10/08 07:23:29;;;;;;;10.27;4.60;;;12.70;99.90;;;;;;5018803;28;20217;-52
2022/10/08 07:26:06;;;;;;;10.37;3.80;;;12.70;99.90;;;;;;5017860;28;20808;-53
2022/10/08 07:28:35;;;;;;;9.53;4.77;;;12.70;99.90;;;;;;5018686;28;20283;-53
2022/10/08 07:31:06;;;;;;;6.83;3.43;;;12.90;99.90;;;;;;5022574;28;20255;-53
2022/10/08 07:33:33;;;;;;;12.37;3.50;;;13.10;99.90;;;;;;5021776;28;20200;-52
2022/10/08 07:36:14;;;;;;;8.23;3.13;;;13.10;99.90;;;;;;5015315;28;20197;-52
2022/10/08 07:38:41;;;;;;;8.47;2.97;;;13.00;99.90;;;;;;5016813;28;20194;-53
2022/10/08 07:41:09;;;;;;;6.90;3.90;;;13.00;99.90;;;;;;5020992;28;20239;-53
2022/10/08 07:43:40;;;;;;;9.60;2.40;;;13.10;99.90;;;;;;5012560;28;20217;-52
2022/10/08 07:46:08;;;;;;;7.50;2.47;;;13.10;99.90;;;;;;5019989;28;20205;-53
2022/10/08 07:48:35;;;;;;;5.63;2.37;;;13.20;99.90;;;;;;5018217;28;20193;-51
2022/10/08 07:51:14;;;;;;;7.47;2.13;;;13.40;99.90;;;;;;5018463;28;20197;-52
2022/10/08 07:53:41;;;;;;;3.17;1.97;;;13.40;99.90;;;;;;5015441;28;20243;-52
2022/10/08 07:56:09;;;;;;;3.70;1.70;;;13.50;99.90;;;;;;5014993;28;20204;-53
2022/10/08 07:58:37;;;;;;;4.37;1.77;;;13.80;99.90;;;;;;5013567;28;20331;-53
2022/10/08 08:01:06;;;;;;;7.83;2.43;;;13.70;99.90;;;;;;5009502;28;20975;-51
2022/10/08 08:03:33;;;;;;;4.17;1.50;;;14.00;99.90;;;;;;5017045;28;20201;-52
2022/10/08 08:06:04;;;;;;;5.27;1.67;;;14.10;99.90;;;;;;5019722;28;20193;-52
2022/10/08 08:08:31;;;;;;;6.17;2.27;;;14.20;99.90;;;;;;5015868;28;20630;-52
2022/10/08 08:10:59;;;;;;;4.27;1.67;;;14.60;99.90;;;;;;5017246;28;20614;-52
2022/10/08 08:13:28;;;;;;;7.83;1.57;;;15.00;99.90;;;;;;5016073;28;20671;-51
2022/10/08 08:16:14;;;;;;;5.13;1.20;;;15.00;1.00;;;;;;5029856;28;20205;-51
2022/10/08 08:18:43;;;;;;;6.43;1.93;;;15.10;1.00;;;;;;5013684;28;20205;-51
2022/10/08 08:21:13;;;;;;;3.67;1.13;;;15.50;1.00;;;;;;5018857;28;20657;-52
2022/10/08 08:23:43;;;;;;;6.20;1.20;;;15.50;1.00;;;;;;5028318;28;20241;-52
2022/10/08 08:26:13;;;;;;;3.47;1.07;;;15.60;1.00;;;;;;5016717;28;20196;-51
2022/10/08 08:28:40;;;;;;;4.53;1.17;;;16.00;1.00;;;;;;5015168;28;20265;-50
2022/10/08 08:31:16;;;;;;;4.57;0.90;;;16.50;99.90;;;;;;5013384;28;20191;-53
2022/10/08 08:33:49;;;;;;;4.77;1.23;;;16.30;99.90;;;;;;5015616;28;20693;-51
2022/10/08 08:36:18;;;;;;;4.20;1.27;;;16.00;25.00;;;;;;5018588;28;20688;-50
2022/10/08 08:38:45;;;;;;;4.93;1.00;;;16.30;1.00;;;;;;5010437;28;20206;-52
2022/10/08 08:41:27;;;;;;;4.03;1.43;;;16.30;78.20;;;;;;5017129;28;20207;-52
2022/10/08 08:44:12;;;;;;;3.90;0.80;;;16.90;1.00;;;;;;5016947;28;20691;-52
2022/10/08 08:46:43;;;;;;;5.87;1.20;;;16.80;99.90;;;;;;5013885;28;20203;-51
2022/10/08 08:49:40;;;;;;;5.10;1.10;;;16.60;93.70;;;;;;5015015;28;20232;-50
2022/10/08 08:52:10;;;;;;;10.80;1.10;;;16.60;99.90;;;;;;5032133;28;20836;-51
2022/10/08 08:54:37;;;;;;;4.17;1.03;;;16.60;99.90;;;;;;5019093;28;20214;-52
2022/10/08 08:57:30;;;;;;;3.80;0.83;;;17.20;99.90;;;;;;5016014;28;20223;-52
2022/10/08 09:00:03;;;;;;;4.30;1.07;;;17.40;1.00;;;;;;5005726;28;20242;-52
2022/10/08 09:02:50;;;;;;;4.60;1.10;;;17.50;1.00;;;;;;5011308;28;20226;-52
2022/10/08 09:05:19;;;;;;;3.67;0.83;;;17.10;1.00;;;;;;5016511;28;20327;-51
2022/10/08 09:07:50;;;;;;;4.60;1.27;;;16.90;1.00;;;;;;5017466;28;20869;-51
2022/10/08 09:10:21;;;;;;;2.57;0.77;;;16.40;99.90;;;;;;5020324;28;20208;-52
2022/10/08 09:12:51;;;;;;;2.87;1.03;;;16.10;99.90;;;;;;5020188;28;20199;-51
2022/10/08 09:15:22;;;;;;;6.13;1.03;;;15.90;1.00;;;;;;5014278;28;20306;-51
2022/10/08 09:17:51;;;;;;;4.60;0.90;;;15.80;1.00;;;;;;5021087;28;20309;-50
2022/10/08 09:20:22;;;;;;;2.27;1.00;;;15.80;1.00;;;;;;5026344;28;20210;-50
2022/10/08 09:22:52;;;;;;;6.30;1.40;;;15.70;1.00;;;;;;5014705;28;20294;-51
2022/10/08 09:25:22;;;;;;;3.23;0.93;;;15.50;1.00;;;;;;5015655;28;20212;-48
2022/10/08 09:27:52;;;;;;;6.20;1.00;;;15.50;1.00;;;;;;5024196;28;20232;-51
2022/10/08 09:30:33;;;;;;;3.47;1.43;;;15.30;1.00;;;;;;5024407;28;20214;-50
2022/10/08 09:33:15;;;;;;;3.60;1.10;;;15.30;1.00;;;;;;5023548;28;20193;-50
2022/10/08 09:35:50;;;;;;;8.13;1.17;;;15.30;1.00;;;;;;5013023;28;20199;-50
2022/10/08 09:38:25;;;;;;;6.23;1.10;;;15.40;1.00;;;;;;5027411;28;20202;-51
2022/10/08 09:41:07;;;;;;;7.03;0.90;;;15.30;1.00;;;;;;5026129;28;20211;-50
2022/10/08 09:43:35;;;;;;;9.00;0.93;;;15.50;1.00;;;;;;5023746;28;20213;-50
2022/10/08 09:46:28;;;;;;;6.70;2.60;;;15.30;1.00;;;;;;5015303;28;20688;-50
2022/10/08 09:48:56;;;;;;;6.00;0.90;;;15.30;1.00;;;;;;5007446;28;20765;-51
2022/10/08 09:51:23;;;;;;;3.13;0.63;;;15.40;1.00;;;;;;5018410;28;20202;-49
2022/10/08 09:53:58;;;;;;;4.17;0.83;;;15.40;1.00;;;;;;5022964;28;20206;-50
2022/10/08 09:56:29;;;;;;;2.97;0.70;;;15.40;99.90;;;;;;5017995;28;20280;-51
2022/10/08 09:59:02;;;;;;;6.47;1.00;;;15.50;99.90;;;;;;5016280;28;20245;-49
2022/10/08 10:01:30;;;;;;;2.73;0.70;;;15.50;1.00;;;;;;5013611;28;20656;-50
2022/10/08 10:04:00;;;;;;;7.07;1.20;;;15.40;99.90;;;;;;5020864;28;20222;-51
2022/10/08 10:06:47;;;;;;;4.40;0.70;;;15.50;99.90;;;;;;5013071;28;20232;-50
2022/10/08 10:09:32;;;;;;;2.13;0.70;;;15.60;99.90;;;;;;5010948;28;20200;-50
2022/10/08 10:12:05;;;;;;;5.77;1.00;;;15.70;99.90;;;;;;5021119;28;20585;-50
2022/10/08 10:14:47;;;;;;;5.10;1.50;;;15.80;22.10;;;;;;5018027;28;20262;-49
2022/10/08 10:17:32;;;;;;;4.23;0.80;;;15.90;24.70;;;;;;5010180;28;20690;-51
2022/10/08 10:20:23;;;;;;;6.30;0.90;;;16.10;1.00;;;;;;5013530;28;20206;-49
2022/10/08 10:23:01;;;;;;;2.77;0.60;;;16.10;1.00;;;;;;5007031;28;20377;-55
2022/10/08 10:25:42;;;;;;;7.57;1.00;;;16.20;4.30;;;;;;5017180;28;20231;-52
2022/10/08 10:28:33;;;;;;;5.47;1.93;;;16.20;1.00;;;;;;5015231;28;20238;-52
2022/10/08 10:31:02;;;;;;;6.63;1.77;;;16.30;1.00;;;;;;5017254;28;20247;-51
2022/10/08 10:33:33;;;;;;;3.83;1.20;;;16.10;1.00;;;;;;5016283;28;20205;-49
2022/10/08 10:36:04;;;;;;;2.27;0.83;;;16.20;1.00;;;;;;5015051;28;20311;-51
2022/10/08 10:38:36;;;;;;;3.93;0.60;;;16.10;1.00;;;;;;5015802;28;20206;-51
2022/10/08 10:41:36;;;;;;;3.77;0.90;;;16.30;1.00;;;;;;5012432;28;20207;-50
2022/10/08 10:44:11;;;;;;;7.90;1.40;;;16.40;1.00;;;;;;5018129;28;20224;-50
2022/10/08 10:47:07;;;;;;;2.87;0.83;;;16.40;1.00;;;;;;5013455;28;20290;-51
2022/10/08 10:49:39;;;;;;;4.27;0.80;;;16.50;1.00;;;;;;5021055;28;20686;-50
2022/10/08 10:52:32;;;;;;;3.50;0.70;;;16.70;1.00;;;;;;5024319;28;20203;-52
2022/10/08 10:55:19;;;;;;;2.83;0.70;;;16.50;1.00;;;;;;5013974;28;20194;-50
2022/10/08 10:57:49;;;;;;;2.30;0.70;;;16.50;1.00;;;;;;5011206;28;20217;-50
2022/10/08 11:00:34;;;;;;;3.07;0.80;;;16.40;1.00;;;;;;5014692;28;20248;-52
2022/10/08 11:03:17;;;;;;;2.23;0.70;;;16.50;1.00;;;;;;5008390;28;20319;-52
2022/10/08 11:05:49;;;;;;;4.37;0.83;;;16.70;1.00;;;;;;5010217;28;20222;-51
2022/10/08 11:08:24;;;;;;;7.70;1.17;;;16.70;1.00;;;;;;5008546;28;20247;-51
2022/10/08 11:11:24;;;;;;;4.17;1.43;;;16.90;1.00;;;;;;5013004;28;20279;-50
2022/10/08 11:16:44;;;;;;;2.77;0.70;;;17.30;1.00;;;;;;5037217;28;20217;-51
2022/10/08 11:19:27;;;;;;;3.43;0.73;;;17.20;99.90;;;;;;5042163;28;20243;-52
2022/10/08 11:22:16;;;;;;;3.90;0.77;;;16.90;1.00;;;;;;5049518;22;20232;-79
2022/10/08 11:25:14;;;;;;;1.50;0.67;;;16.90;1.00;;;;;;5025582;28;20213;-79
2022/10/08 11:27:41;;;;;;;3.20;0.93;;;17.10;99.90;;;;;;5029914;28;20205;-80
2022/10/08 11:30:13;;;;;;;3.20;1.37;;;17.20;1.00;;;;;;5024273;28;20200;-80
2022/10/08 11:32:43;;;;;;;4.37;0.90;;;17.40;99.90;;;;;;5018731;28;20204;-79
2022/10/08 11:35:39;;;;;;;3.23;0.70;;;17.20;99.90;;;;;;5024709;28;20204;-80
2022/10/08 11:38:43;;;;;;;2.83;1.17;;;17.40;99.90;;;;;;5148951;22;20305;-55
2022/10/08 11:41:30;;;;;;;2.07;1.00;;;17.50;1.00;;;;;;4960080;28;20277;-83
2022/10/08 11:44:00;;;;;;;3.03;0.83;;;17.10;99.90;;;;;;4963644;28;20538;-83
2022/10/08 11:46:32;;;;;;;3.63;0.80;;;17.10;1.00;;;;;;4966723;28;20308;-83
2022/10/08 11:49:12;;;;;;;5.33;0.60;;;17.50;1.00;;;;;;4968676;28;20566;-83
2022/10/08 11:51:44;;;;;;;3.03;0.80;;;17.80;99.90;;;;;;4966208;28;20214;-82
2022/10/08 11:54:31;;;;;;;4.23;0.90;;;18.20;99.90;;;;;;4931060;28;20576;-82
2022/10/08 11:57:30;;;;;;;4.37;0.87;;;18.70;99.90;;;;;;4967205;28;20202;-82
2022/10/08 12:00:31;;;;;;;3.93;0.80;;;19.20;27.80;;;;;;4982053;28;20217;-83
2022/10/08 12:02:59;;;;;;;4.13;0.80;;;18.50;47.50;;;;;;4972669;28;20206;-83
2022/10/08 12:05:44;;;;;;;1.87;0.70;;;18.80;44.50;;;;;;4971848;28;20218;-81
2022/10/08 12:08:53;;;;;;;2.63;0.93;;;19.10;1.00;;;;;;4969819;28;20200;-82
2022/10/08 12:11:36;;;;;;;3.23;0.70;;;18.80;1.00;;;;;;4955148;28;20203;-82
2022/10/08 12:14:13;;;;;;;2.43;0.70;;;18.20;83.10;;;;;;4970951;28;20214;-82
2022/10/08 12:16:46;;;;;;;2.80;0.90;;;17.70;99.90;;;;;;4971447;28;20310;-83
2022/10/08 12:19:35;;;;;;;3.53;0.90;;;18.20;99.90;;;;;;4971466;28;20220;-82
2022/10/08 12:22:38;;;;;;;6.67;0.80;;;18.80;99.90;;;;;;4971934;28;20242;-82
2022/10/08 12:25:36;;;;;;;3.87;0.80;;;19.40;99.90;;;;;;4976273;28;20237;-82
2022/10/08 12:28:18;;;;;;;6.43;1.10;;;19.60;1.00;;;;;;4972774;28;20223;-82
2022/10/08 12:31:00;;;;;;;2.00;1.00;;;19.70;1.00;;;;;;4971165;28;20216;-82
2022/10/08 12:33:29;;;;;;;2.67;1.00;;;20.30;1.00;;;;;;4965028;28;20690;-82
2022/10/08 12:36:13;;;;;;;2.93;0.80;;;20.90;1.00;;;;;;4976361;28;20205;-82
2022/10/08 12:39:12;;;;;;;1.93;0.60;;;20.70;1.00;;;;;;4980312;28;20269;-82
2022/10/08 12:42:16;;;;;;;2.00;0.60;;;20.00;1.00;;;;;;4981304;28;20290;-82
2022/10/08 12:45:06;;;;;;;4.53;1.80;;;19.40;1.00;;;;;;4991638;28;20198;-83
2022/10/08 12:48:18;;;;;;;1.80;0.50;;;18.90;1.00;;;;;;4991132;28;20218;-82
2022/10/08 12:51:01;;;;;;;2.43;0.80;;;19.20;1.00;;;;;;4996892;28;20209;-82
2022/10/08 12:53:28;;;;;;;6.53;0.60;;;19.50;1.00;;;;;;4977669;28;20249;-82
2022/10/08 12:55:56;;;;;;;2.67;0.57;;;19.10;1.00;;;;;;4987443;28;20206;-83
2022/10/08 12:58:28;;;;;;;1.73;0.43;;;19.00;1.00;;;;;;4998634;28;20213;-83
2022/10/08 13:00:58;;;;;;;4.57;0.93;;;19.20;1.00;;;;;;4989760;28;20241;-83
2022/10/08 13:03:25;;;;;;;2.20;0.70;;;19.40;1.00;;;;;;4990844;28;20266;-83
2022/10/08 13:05:56;;;;;;;3.70;0.63;;;19.60;1.00;;;;;;4991400;28;20210;-83
2022/10/08 13:08:38;;;;;;;4.87;0.70;;;19.80;1.00;;;;;;4993013;28;20676;-82
2022/10/08 13:11:09;;;;;;;2.67;0.80;;;20.20;1.00;;;;;;4990988;28;21754;-82
2022/10/08 13:13:41;;;;;;;4.07;0.87;;;19.60;1.00;;;;;;4987974;28;20202;-82
2022/10/08 13:16:09;;;;;;;2.47;0.77;;;19.10;1.00;;;;;;4987946;28;20276;-82
2022/10/08 13:18:40;;;;;;;3.00;1.07;;;18.90;1.00;;;;;;4988649;28;20625;-82
2022/10/08 13:21:31;;;;;;;1.77;0.70;;;19.10;1.00;;;;;;4991823;28;20289;-82
2022/10/08 13:24:00;;;;;;;1.93;0.80;;;19.10;1.00;;;;;;4953888;28;20575;-81
2022/10/08 13:26:39;;;;;;;1.30;0.60;;;18.80;1.00;;;;;;4983995;28;20232;-82